sensor_id;sensor_type;location;lat;lon;timestamp;P1;durP1;ratioP1;P2;durP2;ratioP2
7529;SDS011;3806;52.270;10.544;2023-03-12T00:01:46;3.67;;;1.75;;
7529;SDS011;3806;52.270;10.544;2023-03-12T00:04:11;2.72;;;1.63;;
7529;SDS011;3806;52.270;10.544;2023-03-12T00:06:37;2.83;;;1.50;;
7529;SDS011;3806;52.270;10.544;2023-03-12T00:09:02;3.60;;;1.70;;
7529;SDS011;3806;52.270;10.544;2023-03-12T00:11:28;6.78;;;1.70;;
7529;SDS011;3806;52.270;10.544;2023-03-12T00:13:55;2.03;;;1.33;;
7529;SDS011;3806;52.270;10.544;2023-03-12T00:16:22;6.03;;;1.90;;
7529;SDS011;3806;52.270;10.544;2023-03-12T00:18:49;3.53;;;1.67;;
7529;SDS011;3806;52.270;10.544;2023-03-12T00:21:16;5.57;;;1.50;;
7529;SDS011;3806;52.270;10.544;2023-03-12T00:23:45;5.32;;;1.38;;
7529;SDS011;3806;52.270;10.544;2023-03-12T00:26:12;2.53;;;1.48;;
7529;SDS011;3806;52.270;10.544;2023-03-12T00:28:38;1.90;;;1.48;;
7529;SDS011;3806;52.270;10.544;2023-03-12T00:31:15;2.25;;;1.27;;
7529;SDS011;3806;52.270;10.544;2023-03-12T00:33:43;3.78;;;1.70;;
7529;SDS011;3806;52.270;10.544;2023-03-12T00:36:09;2.40;;;1.50;;
7529;SDS011;3806;52.270;10.544;2023-03-12T00:38:35;4.13;;;1.58;;
7529;SDS011;3806;52.270;10.544;2023-03-12T00:41:01;2.17;;;1.35;;
7529;SDS011;3806;52.270;10.544;2023-03-12T00:43:26;3.88;;;1.85;;
7529;SDS011;3806;52.270;10.544;2023-03-12T00:45:52;4.18;;;1.77;;
7529;SDS011;3806;52.270;10.544;2023-03-12T00:48:17;2.35;;;1.58;;
7529;SDS011;3806;52.270;10.544;2023-03-12T00:50:43;2.55;;;1.83;;
7529;SDS011;3806;52.270;10.544;2023-03-12T00:53:08;4.22;;;1.70;;
7529;SDS011;3806;52.270;10.544;2023-03-12T00:55:34;2.97;;;1.73;;
7529;SDS011;3806;52.270;10.544;2023-03-12T00:57:59;4.32;;;1.95;;
7529;SDS011;3806;52.270;10.544;2023-03-12T01:00:25;2.63;;;1.65;;
7529;SDS011;3806;52.270;10.544;2023-03-12T01:02:51;4.15;;;1.58;;
7529;SDS011;3806;52.270;10.544;2023-03-12T01:05:16;2.17;;;1.15;;
7529;SDS011;3806;52.270;10.544;2023-03-12T01:07:42;2.30;;;1.45;;
7529;SDS011;3806;52.270;10.544;2023-03-12T01:10:08;3.13;;;1.77;;
7529;SDS011;3806;52.270;10.544;2023-03-12T01:12:35;1.75;;;1.25;;
7529;SDS011;3806;52.270;10.544;2023-03-12T01:15:01;3.55;;;1.40;;
7529;SDS011;3806;52.270;10.544;2023-03-12T01:17:26;3.67;;;1.45;;
7529;SDS011;3806;52.270;10.544;2023-03-12T01:19:52;7.28;;;1.77;;
7529;SDS011;3806;52.270;10.544;2023-03-12T01:22:17;2.67;;;1.83;;
7529;SDS011;3806;52.270;10.544;2023-03-12T01:24:43;1.83;;;1.40;;
7529;SDS011;3806;52.270;10.544;2023-03-12T01:27:08;5.95;;;1.85;;
7529;SDS011;3806;52.270;10.544;2023-03-12T01:29:34;3.58;;;1.60;;
7529;SDS011;3806;52.270;10.544;2023-03-12T01:31:59;5.85;;;1.83;;
7529;SDS011;3806;52.270;10.544;2023-03-12T01:34:25;1.55;;;1.02;;
7529;SDS011;3806;52.270;10.544;2023-03-12T01:36:50;3.60;;;1.33;;
7529;SDS011;3806;52.270;10.544;2023-03-12T01:39:16;3.85;;;1.80;;
7529;SDS011;3806;52.270;10.544;2023-03-12T01:41:41;3.67;;;1.50;;
7529;SDS011;3806;52.270;10.544;2023-03-12T01:44:10;3.83;;;1.65;;
7529;SDS011;3806;52.270;10.544;2023-03-12T01:46:42;2.83;;;1.30;;
7529;SDS011;3806;52.270;10.544;2023-03-12T01:49:26;2.53;;;1.20;;
7529;SDS011;3806;52.270;10.544;2023-03-12T01:54:42;2.15;;;1.48;;
7529;SDS011;3806;52.270;10.544;2023-03-12T01:57:14;4.30;;;1.52;;
7529;SDS011;3806;52.270;10.544;2023-03-12T01:59:43;2.85;;;1.52;;
7529;SDS011;3806;52.270;10.544;2023-03-12T02:02:15;4.15;;;1.75;;
7529;SDS011;3806;52.270;10.544;2023-03-12T02:04:42;4.68;;;1.70;;
7529;SDS011;3806;52.270;10.544;2023-03-12T02:07:10;3.67;;;1.63;;
7529;SDS011;3806;52.270;10.544;2023-03-12T02:09:40;3.40;;;1.77;;
7529;SDS011;3806;52.270;10.544;2023-03-12T02:12:07;3.17;;;1.63;;
7529;SDS011;3806;52.270;10.544;2023-03-12T02:14:34;2.10;;;1.35;;
7529;SDS011;3806;52.270;10.544;2023-03-12T02:17:00;3.47;;;1.48;;
7529;SDS011;3806;52.270;10.544;2023-03-12T02:19:31;6.57;;;1.50;;
7529;SDS011;3806;52.270;10.544;2023-03-12T02:22:18;7.70;;;2.00;;
7529;SDS011;3806;52.270;10.544;2023-03-12T02:27:17;4.30;;;1.55;;
7529;SDS011;3806;52.270;10.544;2023-03-12T02:29:45;2.00;;;1.25;;
7529;SDS011;3806;52.270;10.544;2023-03-12T02:32:16;3.90;;;1.70;;
7529;SDS011;3806;52.270;10.544;2023-03-12T02:34:48;2.05;;;1.75;;
7529;SDS011;3806;52.270;10.544;2023-03-12T02:37:15;4.10;;;1.33;;
7529;SDS011;3806;52.270;10.544;2023-03-12T02:39:41;3.63;;;1.27;;
7529;SDS011;3806;52.270;10.544;2023-03-12T02:42:13;3.35;;;1.00;;
7529;SDS011;3806;52.270;10.544;2023-03-12T02:44:39;3.40;;;1.30;;
7529;SDS011;3806;52.270;10.544;2023-03-12T02:47:05;3.13;;;1.33;;
7529;SDS011;3806;52.270;10.544;2023-03-12T02:49:31;1.55;;;1.40;;
7529;SDS011;3806;52.270;10.544;2023-03-12T02:52:01;2.38;;;1.45;;
7529;SDS011;3806;52.270;10.544;2023-03-12T02:54:27;2.00;;;1.27;;
7529;SDS011;3806;52.270;10.544;2023-03-12T02:56:52;4.40;;;1.75;;
7529;SDS011;3806;52.270;10.544;2023-03-12T02:59:19;5.35;;;2.10;;
7529;SDS011;3806;52.270;10.544;2023-03-12T03:01:46;1.90;;;1.70;;
7529;SDS011;3806;52.270;10.544;2023-03-12T03:04:19;3.00;;;1.77;;
7529;SDS011;3806;52.270;10.544;2023-03-12T03:06:45;4.68;;;1.50;;
7529;SDS011;3806;52.270;10.544;2023-03-12T03:09:12;1.70;;;1.25;;
7529;SDS011;3806;52.270;10.544;2023-03-12T03:11:38;2.10;;;1.25;;
7529;SDS011;3806;52.270;10.544;2023-03-12T03:14:04;1.70;;;1.55;;
7529;SDS011;3806;52.270;10.544;2023-03-12T03:16:31;4.70;;;1.70;;
7529;SDS011;3806;52.270;10.544;2023-03-12T03:18:57;2.85;;;1.60;;
7529;SDS011;3806;52.270;10.544;2023-03-12T03:21:23;1.98;;;1.48;;
7529;SDS011;3806;52.270;10.544;2023-03-12T03:23:49;1.58;;;1.30;;
7529;SDS011;3806;52.270;10.544;2023-03-12T03:26:16;2.60;;;1.60;;
7529;SDS011;3806;52.270;10.544;2023-03-12T03:28:44;1.90;;;1.45;;
7529;SDS011;3806;52.270;10.544;2023-03-12T03:31:10;2.03;;;1.30;;
7529;SDS011;3806;52.270;10.544;2023-03-12T03:33:37;2.55;;;1.70;;
7529;SDS011;3806;52.270;10.544;2023-03-12T03:36:03;5.80;;;1.60;;
7529;SDS011;3806;52.270;10.544;2023-03-12T03:38:30;3.55;;;1.27;;
7529;SDS011;3806;52.270;10.544;2023-03-12T03:40:59;2.70;;;1.45;;
7529;SDS011;3806;52.270;10.544;2023-03-12T03:43:26;3.65;;;1.40;;
7529;SDS011;3806;52.270;10.544;2023-03-12T03:45:58;2.60;;;1.45;;
7529;SDS011;3806;52.270;10.544;2023-03-12T03:48:25;1.63;;;1.17;;
7529;SDS011;3806;52.270;10.544;2023-03-12T03:50:51;3.00;;;1.65;;
7529;SDS011;3806;52.270;10.544;2023-03-12T03:53:17;7.70;;;1.73;;
7529;SDS011;3806;52.270;10.544;2023-03-12T03:55:44;6.18;;;1.48;;
7529;SDS011;3806;52.270;10.544;2023-03-12T03:58:10;3.03;;;1.85;;
7529;SDS011;3806;52.270;10.544;2023-03-12T04:00:36;5.53;;;1.40;;
7529;SDS011;3806;52.270;10.544;2023-03-12T04:03:01;5.50;;;1.38;;
7529;SDS011;3806;52.270;10.544;2023-03-12T04:05:27;3.22;;;1.85;;
7529;SDS011;3806;52.270;10.544;2023-03-12T04:07:53;1.63;;;1.17;;
7529;SDS011;3806;52.270;10.544;2023-03-12T04:10:20;4.55;;;1.90;;
7529;SDS011;3806;52.270;10.544;2023-03-12T04:12:47;4.50;;;1.70;;
7529;SDS011;3806;52.270;10.544;2023-03-12T04:15:12;2.40;;;1.70;;
7529;SDS011;3806;52.270;10.544;2023-03-12T04:17:38;3.40;;;1.38;;
7529;SDS011;3806;52.270;10.544;2023-03-12T04:20:04;2.80;;;1.60;;
7529;SDS011;3806;52.270;10.544;2023-03-12T04:22:32;2.60;;;1.50;;
7529;SDS011;3806;52.270;10.544;2023-03-12T04:24:57;4.72;;;1.70;;
7529;SDS011;3806;52.270;10.544;2023-03-12T04:27:23;2.13;;;1.48;;
7529;SDS011;3806;52.270;10.544;2023-03-12T04:29:49;1.58;;;1.48;;
7529;SDS011;3806;52.270;10.544;2023-03-12T04:32:17;4.47;;;1.80;;
7529;SDS011;3806;52.270;10.544;2023-03-12T04:34:43;2.78;;;1.23;;
7529;SDS011;3806;52.270;10.544;2023-03-12T04:37:08;2.03;;;1.55;;
7529;SDS011;3806;52.270;10.544;2023-03-12T04:39:40;5.20;;;1.80;;
7529;SDS011;3806;52.270;10.544;2023-03-12T04:42:07;3.72;;;1.70;;
7529;SDS011;3806;52.270;10.544;2023-03-12T04:44:35;4.47;;;1.58;;
7529;SDS011;3806;52.270;10.544;2023-03-12T04:47:01;2.70;;;1.70;;
7529;SDS011;3806;52.270;10.544;2023-03-12T04:49:29;2.63;;;1.77;;
7529;SDS011;3806;52.270;10.544;2023-03-12T04:51:55;3.22;;;1.70;;
7529;SDS011;3806;52.270;10.544;2023-03-12T04:54:20;3.28;;;1.73;;
7529;SDS011;3806;52.270;10.544;2023-03-12T04:56:47;3.50;;;1.42;;
7529;SDS011;3806;52.270;10.544;2023-03-12T04:59:13;4.05;;;1.30;;
7529;SDS011;3806;52.270;10.544;2023-03-12T05:01:39;3.38;;;1.25;;
7529;SDS011;3806;52.270;10.544;2023-03-12T05:04:05;2.70;;;1.35;;
7529;SDS011;3806;52.270;10.544;2023-03-12T05:06:31;4.57;;;1.50;;
7529;SDS011;3806;52.270;10.544;2023-03-12T05:08:57;3.80;;;1.80;;
7529;SDS011;3806;52.270;10.544;2023-03-12T05:11:23;3.30;;;1.92;;
7529;SDS011;3806;52.270;10.544;2023-03-12T05:13:49;3.75;;;1.85;;
7529;SDS011;3806;52.270;10.544;2023-03-12T05:16:14;3.60;;;1.20;;
7529;SDS011;3806;52.270;10.544;2023-03-12T05:18:41;2.50;;;1.50;;
7529;SDS011;3806;52.270;10.544;2023-03-12T05:21:11;2.97;;;1.65;;
7529;SDS011;3806;52.270;10.544;2023-03-12T05:23:38;1.20;;;1.10;;
7529;SDS011;3806;52.270;10.544;2023-03-12T05:26:06;2.88;;;1.48;;
7529;SDS011;3806;52.270;10.544;2023-03-12T05:28:39;2.85;;;1.65;;
7529;SDS011;3806;52.270;10.544;2023-03-12T05:31:07;3.50;;;1.85;;
7529;SDS011;3806;52.270;10.544;2023-03-12T05:33:34;5.80;;;1.55;;
7529;SDS011;3806;52.270;10.544;2023-03-12T05:35:59;3.58;;;1.45;;
7529;SDS011;3806;52.270;10.544;2023-03-12T05:38:25;2.45;;;1.63;;
7529;SDS011;3806;52.270;10.544;2023-03-12T05:40:51;3.33;;;1.70;;
7529;SDS011;3806;52.270;10.544;2023-03-12T05:43:19;2.97;;;1.77;;
7529;SDS011;3806;52.270;10.544;2023-03-12T05:45:45;3.10;;;2.03;;
7529;SDS011;3806;52.270;10.544;2023-03-12T05:48:10;6.28;;;1.67;;
7529;SDS011;3806;52.270;10.544;2023-03-12T05:50:36;2.92;;;1.58;;
7529;SDS011;3806;52.270;10.544;2023-03-12T05:53:02;3.20;;;1.52;;
7529;SDS011;3806;52.270;10.544;2023-03-12T05:55:27;4.78;;;1.77;;
7529;SDS011;3806;52.270;10.544;2023-03-12T05:57:53;3.40;;;1.65;;
7529;SDS011;3806;52.270;10.544;2023-03-12T06:00:18;3.95;;;1.52;;
7529;SDS011;3806;52.270;10.544;2023-03-12T06:02:44;3.28;;;1.50;;
7529;SDS011;3806;52.270;10.544;2023-03-12T06:05:10;4.15;;;2.10;;
7529;SDS011;3806;52.270;10.544;2023-03-12T06:07:36;3.30;;;1.45;;
7529;SDS011;3806;52.270;10.544;2023-03-12T06:10:02;2.45;;;1.55;;
7529;SDS011;3806;52.270;10.544;2023-03-12T06:12:28;1.48;;;1.33;;
7529;SDS011;3806;52.270;10.544;2023-03-12T06:14:56;5.22;;;2.00;;
7529;SDS011;3806;52.270;10.544;2023-03-12T06:17:22;2.35;;;1.35;;
7529;SDS011;3806;52.270;10.544;2023-03-12T06:19:51;5.70;;;1.90;;
7529;SDS011;3806;52.270;10.544;2023-03-12T06:22:17;3.03;;;1.58;;
7529;SDS011;3806;52.270;10.544;2023-03-12T06:24:43;2.55;;;1.80;;
7529;SDS011;3806;52.270;10.544;2023-03-12T06:27:11;3.60;;;1.52;;
7529;SDS011;3806;52.270;10.544;2023-03-12T06:29:37;3.85;;;1.50;;
7529;SDS011;3806;52.270;10.544;2023-03-12T06:32:04;5.03;;;2.20;;
7529;SDS011;3806;52.270;10.544;2023-03-12T06:34:29;2.60;;;1.50;;
7529;SDS011;3806;52.270;10.544;2023-03-12T06:36:55;1.52;;;1.27;;
7529;SDS011;3806;52.270;10.544;2023-03-12T06:39:21;7.22;;;2.67;;
7529;SDS011;3806;52.270;10.544;2023-03-12T06:41:46;3.05;;;1.60;;
7529;SDS011;3806;52.270;10.544;2023-03-12T06:44:12;5.15;;;1.98;;
7529;SDS011;3806;52.270;10.544;2023-03-12T06:46:37;5.55;;;1.90;;
7529;SDS011;3806;52.270;10.544;2023-03-12T06:49:05;5.53;;;2.17;;
7529;SDS011;3806;52.270;10.544;2023-03-12T06:51:31;3.72;;;1.80;;
7529;SDS011;3806;52.270;10.544;2023-03-12T06:53:57;3.42;;;1.42;;
7529;SDS011;3806;52.270;10.544;2023-03-12T06:56:24;1.85;;;1.48;;
7529;SDS011;3806;52.270;10.544;2023-03-12T06:58:50;3.05;;;1.90;;
7529;SDS011;3806;52.270;10.544;2023-03-12T07:01:16;4.95;;;1.63;;
7529;SDS011;3806;52.270;10.544;2023-03-12T07:03:41;3.35;;;1.80;;
7529;SDS011;3806;52.270;10.544;2023-03-12T07:06:14;7.13;;;1.88;;
7529;SDS011;3806;52.270;10.544;2023-03-12T07:08:41;2.22;;;1.40;;
7529;SDS011;3806;52.270;10.544;2023-03-12T07:11:07;1.77;;;1.20;;
7529;SDS011;3806;52.270;10.544;2023-03-12T07:13:33;4.07;;;1.30;;
7529;SDS011;3806;52.270;10.544;2023-03-12T07:15:59;2.60;;;1.48;;
7529;SDS011;3806;52.270;10.544;2023-03-12T07:18:25;3.72;;;1.55;;
7529;SDS011;3806;52.270;10.544;2023-03-12T07:20:51;8.02;;;1.73;;
7529;SDS011;3806;52.270;10.544;2023-03-12T07:23:17;3.50;;;1.90;;
7529;SDS011;3806;52.270;10.544;2023-03-12T07:25:42;3.88;;;2.53;;
7529;SDS011;3806;52.270;10.544;2023-03-12T07:28:09;1.70;;;1.30;;
7529;SDS011;3806;52.270;10.544;2023-03-12T07:30:35;3.47;;;2.08;;
7529;SDS011;3806;52.270;10.544;2023-03-12T07:33:05;1.60;;;1.45;;
7529;SDS011;3806;52.270;10.544;2023-03-12T07:35:32;3.28;;;2.30;;
7529;SDS011;3806;52.270;10.544;2023-03-12T07:37:58;2.22;;;1.50;;
7529;SDS011;3806;52.270;10.544;2023-03-12T07:40:25;3.70;;;1.60;;
7529;SDS011;3806;52.270;10.544;2023-03-12T07:42:51;2.88;;;1.73;;
7529;SDS011;3806;52.270;10.544;2023-03-12T07:45:17;4.15;;;1.90;;
7529;SDS011;3806;52.270;10.544;2023-03-12T07:47:42;2.33;;;1.48;;
7529;SDS011;3806;52.270;10.544;2023-03-12T07:50:08;5.07;;;1.80;;
7529;SDS011;3806;52.270;10.544;2023-03-12T07:52:34;2.33;;;1.60;;
7529;SDS011;3806;52.270;10.544;2023-03-12T07:55:00;3.72;;;1.67;;
7529;SDS011;3806;52.270;10.544;2023-03-12T07:57:25;3.65;;;2.10;;
7529;SDS011;3806;52.270;10.544;2023-03-12T07:59:51;3.65;;;1.50;;
7529;SDS011;3806;52.270;10.544;2023-03-12T08:02:16;3.35;;;1.92;;
7529;SDS011;3806;52.270;10.544;2023-03-12T08:04:42;4.70;;;2.30;;
7529;SDS011;3806;52.270;10.544;2023-03-12T08:07:08;2.60;;;1.42;;
7529;SDS011;3806;52.270;10.544;2023-03-12T08:09:33;1.63;;;1.23;;
7529;SDS011;3806;52.270;10.544;2023-03-12T08:11:59;3.35;;;1.70;;
7529;SDS011;3806;52.270;10.544;2023-03-12T08:14:25;2.90;;;1.45;;
7529;SDS011;3806;52.270;10.544;2023-03-12T08:16:55;2.17;;;1.42;;
7529;SDS011;3806;52.270;10.544;2023-03-12T08:19:21;1.35;;;1.20;;
7529;SDS011;3806;52.270;10.544;2023-03-12T08:21:46;3.10;;;1.60;;
7529;SDS011;3806;52.270;10.544;2023-03-12T08:24:12;1.63;;;1.33;;
7529;SDS011;3806;52.270;10.544;2023-03-12T08:26:40;1.60;;;1.20;;
7529;SDS011;3806;52.270;10.544;2023-03-12T08:29:05;2.92;;;1.63;;
7529;SDS011;3806;52.270;10.544;2023-03-12T08:31:31;6.18;;;1.65;;
7529;SDS011;3806;52.270;10.544;2023-03-12T08:33:56;5.45;;;1.85;;
7529;SDS011;3806;52.270;10.544;2023-03-12T08:36:22;3.15;;;1.52;;
7529;SDS011;3806;52.270;10.544;2023-03-12T08:38:47;2.00;;;1.38;;
7529;SDS011;3806;52.270;10.544;2023-03-12T08:41:13;2.35;;;1.40;;
7529;SDS011;3806;52.270;10.544;2023-03-12T08:43:38;6.32;;;1.70;;
7529;SDS011;3806;52.270;10.544;2023-03-12T08:46:04;7.38;;;2.25;;
7529;SDS011;3806;52.270;10.544;2023-03-12T08:48:30;3.08;;;1.30;;
7529;SDS011;3806;52.270;10.544;2023-03-12T08:50:56;3.30;;;1.80;;
7529;SDS011;3806;52.270;10.544;2023-03-12T08:53:23;2.90;;;1.52;;
7529;SDS011;3806;52.270;10.544;2023-03-12T08:55:53;4.45;;;1.92;;
7529;SDS011;3806;52.270;10.544;2023-03-12T08:58:19;3.05;;;1.92;;
7529;SDS011;3806;52.270;10.544;2023-03-12T09:00:46;2.15;;;1.45;;
7529;SDS011;3806;52.270;10.544;2023-03-12T09:03:11;2.25;;;1.58;;
7529;SDS011;3806;52.270;10.544;2023-03-12T09:05:39;4.20;;;1.75;;
7529;SDS011;3806;52.270;10.544;2023-03-12T09:08:05;6.47;;;1.83;;
7529;SDS011;3806;52.270;10.544;2023-03-12T09:10:30;5.47;;;1.90;;
7529;SDS011;3806;52.270;10.544;2023-03-12T09:12:56;3.08;;;1.63;;
7529;SDS011;3806;52.270;10.544;2023-03-12T09:15:21;2.40;;;1.50;;
7529;SDS011;3806;52.270;10.544;2023-03-12T09:17:47;3.88;;;1.70;;
7529;SDS011;3806;52.270;10.544;2023-03-12T09:20:12;5.93;;;1.83;;
7529;SDS011;3806;52.270;10.544;2023-03-12T09:22:38;4.38;;;2.10;;
7529;SDS011;3806;52.270;10.544;2023-03-12T09:25:06;3.65;;;1.60;;
7529;SDS011;3806;52.270;10.544;2023-03-12T09:27:40;3.97;;;1.58;;
7529;SDS011;3806;52.270;10.544;2023-03-12T09:30:11;8.95;;;3.08;;
7529;SDS011;3806;52.270;10.544;2023-03-12T09:32:39;2.42;;;1.33;;
7529;SDS011;3806;52.270;10.544;2023-03-12T09:35:05;3.58;;;2.28;;
7529;SDS011;3806;52.270;10.544;2023-03-12T09:37:32;3.65;;;1.98;;
7529;SDS011;3806;52.270;10.544;2023-03-12T09:39:58;3.50;;;1.45;;
7529;SDS011;3806;52.270;10.544;2023-03-12T09:42:25;5.28;;;2.35;;
7529;SDS011;3806;52.270;10.544;2023-03-12T09:44:59;4.22;;;1.73;;
7529;SDS011;3806;52.270;10.544;2023-03-12T09:47:28;2.67;;;1.73;;
7529;SDS011;3806;52.270;10.544;2023-03-12T09:52:48;4.47;;;1.92;;
7529;SDS011;3806;52.270;10.544;2023-03-12T09:55:21;2.95;;;1.88;;
7529;SDS011;3806;52.270;10.544;2023-03-12T09:57:48;4.13;;;1.83;;
7529;SDS011;3806;52.270;10.544;2023-03-12T10:00:19;3.92;;;1.80;;
7529;SDS011;3806;52.270;10.544;2023-03-12T10:10:51;7.03;;;2.17;;
7529;SDS011;3806;52.270;10.544;2023-03-12T10:16:18;3.97;;;1.60;;
7529;SDS011;3806;52.270;10.544;2023-03-12T10:21:34;4.95;;;1.88;;
7529;SDS011;3806;52.270;10.544;2023-03-12T10:24:19;4.40;;;1.65;;
7529;SDS011;3806;52.270;10.544;2023-03-12T10:26:56;3.72;;;1.63;;
7529;SDS011;3806;52.270;10.544;2023-03-12T10:31:56;2.78;;;1.42;;
7529;SDS011;3806;52.270;10.544;2023-03-12T10:37:21;5.70;;;1.88;;
7529;SDS011;3806;52.270;10.544;2023-03-12T10:40:01;3.10;;;1.52;;
7529;SDS011;3806;52.270;10.544;2023-03-12T10:42:29;4.00;;;1.92;;
7529;SDS011;3806;52.270;10.544;2023-03-12T10:44:58;2.72;;;1.38;;
7529;SDS011;3806;52.270;10.544;2023-03-12T10:47:41;4.57;;;1.40;;
7529;SDS011;3806;52.270;10.544;2023-03-12T10:50:22;4.45;;;1.58;;
7529;SDS011;3806;52.270;10.544;2023-03-12T10:52:53;3.17;;;1.55;;
7529;SDS011;3806;52.270;10.544;2023-03-12T10:55:57;3.67;;;1.63;;
7529;SDS011;3806;52.270;10.544;2023-03-12T10:58:23;3.00;;;1.52;;
7529;SDS011;3806;52.270;10.544;2023-03-12T11:00:53;2.05;;;1.30;;
7529;SDS011;3806;52.270;10.544;2023-03-12T11:03:23;2.75;;;1.38;;
7529;SDS011;3806;52.270;10.544;2023-03-12T11:05:53;1.15;;;0.95;;
7529;SDS011;3806;52.270;10.544;2023-03-12T11:10:48;6.20;;;1.10;;
7529;SDS011;3806;52.270;10.544;2023-03-12T11:15:48;0.85;;;0.65;;
7529;SDS011;3806;52.270;10.544;2023-03-12T11:20:43;4.80;;;1.00;;
7529;SDS011;3806;52.270;10.544;2023-03-12T11:23:13;1.08;;;0.70;;
7529;SDS011;3806;52.270;10.544;2023-03-12T11:25:40;2.92;;;0.93;;
7529;SDS011;3806;52.270;10.544;2023-03-12T11:28:05;4.60;;;1.20;;
7529;SDS011;3806;52.270;10.544;2023-03-12T11:30:38;2.38;;;0.70;;
7529;SDS011;3806;52.270;10.544;2023-03-12T11:33:04;3.90;;;1.10;;
7529;SDS011;3806;52.270;10.544;2023-03-12T11:35:38;1.30;;;0.70;;
7529;SDS011;3806;52.270;10.544;2023-03-12T11:38:27;3.67;;;1.05;;
7529;SDS011;3806;52.270;10.544;2023-03-12T11:46:41;1.10;;;1.00;;
7529;SDS011;3806;52.270;10.544;2023-03-12T11:49:31;1.35;;;0.93;;
7529;SDS011;3806;52.270;10.544;2023-03-12T11:52:28;1.58;;;0.68;;
7529;SDS011;3806;52.270;10.544;2023-03-12T11:58:25;1.85;;;0.95;;
7529;SDS011;3806;52.270;10.544;2023-03-12T12:01:20;0.68;;;0.68;;
7529;SDS011;3806;52.270;10.544;2023-03-12T12:04:23;2.05;;;1.33;;
7529;SDS011;3806;52.270;10.544;2023-03-12T12:07:12;2.60;;;1.13;;
7529;SDS011;3806;52.270;10.544;2023-03-12T12:15:12;4.28;;;1.20;;
7529;SDS011;3806;52.270;10.544;2023-03-12T12:17:53;0.90;;;0.80;;
7529;SDS011;3806;52.270;10.544;2023-03-12T12:37:18;2.47;;;0.85;;
7529;SDS011;3806;52.270;10.544;2023-03-12T12:39:55;1.40;;;0.90;;
7529;SDS011;3806;52.270;10.544;2023-03-12T12:42:32;1.30;;;1.02;;
7529;SDS011;3806;52.270;10.544;2023-03-12T12:45:05;1.85;;;1.10;;
7529;SDS011;3806;52.270;10.544;2023-03-12T12:47:45;2.25;;;1.30;;
7529;SDS011;3806;52.270;10.544;2023-03-12T12:50:16;1.38;;;1.02;;
7529;SDS011;3806;52.270;10.544;2023-03-12T12:52:48;1.48;;;0.93;;
7529;SDS011;3806;52.270;10.544;2023-03-12T12:55:24;2.83;;;1.10;;
7529;SDS011;3806;52.270;10.544;2023-03-12T12:57:58;3.00;;;1.13;;
7529;SDS011;3806;52.270;10.544;2023-03-12T13:03:18;2.38;;;1.25;;
7529;SDS011;3806;52.270;10.544;2023-03-12T13:05:54;1.77;;;1.42;;
7529;SDS011;3806;52.270;10.544;2023-03-12T13:08:32;2.13;;;1.20;;
7529;SDS011;3806;52.270;10.544;2023-03-12T13:11:23;0.90;;;0.88;;
7529;SDS011;3806;52.270;10.544;2023-03-12T13:16:31;2.63;;;1.90;;
7529;SDS011;3806;52.270;10.544;2023-03-12T13:21:53;5.50;;;1.88;;
7529;SDS011;3806;52.270;10.544;2023-03-12T13:24:32;3.47;;;1.52;;
7529;SDS011;3806;52.270;10.544;2023-03-12T13:27:13;1.88;;;1.48;;
7529;SDS011;3806;52.270;10.544;2023-03-12T13:29:41;1.98;;;1.50;;
7529;SDS011;3806;52.270;10.544;2023-03-12T13:32:08;4.97;;;1.35;;
7529;SDS011;3806;52.270;10.544;2023-03-12T13:34:57;3.67;;;1.35;;
7529;SDS011;3806;52.270;10.544;2023-03-12T13:37:27;2.40;;;1.80;;
7529;SDS011;3806;52.270;10.544;2023-03-12T13:40:32;2.63;;;1.60;;
7529;SDS011;3806;52.270;10.544;2023-03-12T13:48:25;4.40;;;2.08;;
7529;SDS011;3806;52.270;10.544;2023-03-12T13:50:58;3.58;;;1.80;;
7529;SDS011;3806;52.270;10.544;2023-03-12T13:53:34;4.53;;;1.83;;
7529;SDS011;3806;52.270;10.544;2023-03-12T14:01:16;6.40;;;1.55;;
7529;SDS011;3806;52.270;10.544;2023-03-12T14:03:45;3.88;;;1.70;;
7529;SDS011;3806;52.270;10.544;2023-03-12T14:06:19;2.92;;;1.85;;
7529;SDS011;3806;52.270;10.544;2023-03-12T14:12:04;5.22;;;2.38;;
7529;SDS011;3806;52.270;10.544;2023-03-12T14:17:29;2.05;;;1.45;;
7529;SDS011;3806;52.270;10.544;2023-03-12T14:22:44;2.15;;;1.55;;
7529;SDS011;3806;52.270;10.544;2023-03-12T14:25:16;2.25;;;1.45;;
7529;SDS011;3806;52.270;10.544;2023-03-12T14:27:58;2.03;;;1.50;;
7529;SDS011;3806;52.270;10.544;2023-03-12T14:30:47;2.30;;;1.98;;
7529;SDS011;3806;52.270;10.544;2023-03-12T14:33:16;3.70;;;1.92;;
7529;SDS011;3806;52.270;10.544;2023-03-12T14:35:50;3.15;;;1.95;;
7529;SDS011;3806;52.270;10.544;2023-03-12T14:38:24;4.82;;;2.05;;
7529;SDS011;3806;52.270;10.544;2023-03-12T14:43:29;4.07;;;2.20;;
7529;SDS011;3806;52.270;10.544;2023-03-12T14:45:57;3.53;;;2.15;;
7529;SDS011;3806;52.270;10.544;2023-03-12T14:48:29;4.88;;;2.90;;
7529;SDS011;3806;52.270;10.544;2023-03-12T14:51:00;4.65;;;2.50;;
7529;SDS011;3806;52.270;10.544;2023-03-12T14:53:28;3.25;;;2.35;;
7529;SDS011;3806;52.270;10.544;2023-03-12T14:56:02;5.60;;;2.35;;
7529;SDS011;3806;52.270;10.544;2023-03-12T14:58:28;2.55;;;1.88;;
7529;SDS011;3806;52.270;10.544;2023-03-12T15:00:55;1.88;;;1.52;;
7529;SDS011;3806;52.270;10.544;2023-03-12T15:03:26;3.00;;;2.05;;
7529;SDS011;3806;52.270;10.544;2023-03-12T15:05:53;4.25;;;1.95;;
7529;SDS011;3806;52.270;10.544;2023-03-12T15:08:20;2.33;;;2.05;;
7529;SDS011;3806;52.270;10.544;2023-03-12T15:10:47;2.70;;;2.10;;
7529;SDS011;3806;52.270;10.544;2023-03-12T15:13:14;4.10;;;1.50;;
7529;SDS011;3806;52.270;10.544;2023-03-12T15:15:42;2.25;;;1.70;;
7529;SDS011;3806;52.270;10.544;2023-03-12T15:18:16;3.28;;;2.00;;
7529;SDS011;3806;52.270;10.544;2023-03-12T15:20:45;3.03;;;2.05;;
7529;SDS011;3806;52.270;10.544;2023-03-12T15:23:12;3.03;;;2.10;;
7529;SDS011;3806;52.270;10.544;2023-03-12T15:25:39;2.67;;;1.83;;
7529;SDS011;3806;52.270;10.544;2023-03-12T15:30:42;2.95;;;2.40;;
7529;SDS011;3806;52.270;10.544;2023-03-12T15:35:41;4.07;;;2.10;;
7529;SDS011;3806;52.270;10.544;2023-03-12T15:38:21;3.88;;;1.95;;
7529;SDS011;3806;52.270;10.544;2023-03-12T15:40:48;3.47;;;2.28;;
7529;SDS011;3806;52.270;10.544;2023-03-12T15:43:16;5.80;;;2.55;;
7529;SDS011;3806;52.270;10.544;2023-03-12T15:45:44;3.70;;;2.22;;
7529;SDS011;3806;52.270;10.544;2023-03-12T15:48:17;2.30;;;1.90;;
7529;SDS011;3806;52.270;10.544;2023-03-12T15:50:59;3.30;;;2.30;;
7529;SDS011;3806;52.270;10.544;2023-03-12T15:53:28;3.20;;;2.40;;
7529;SDS011;3806;52.270;10.544;2023-03-12T15:58:45;2.63;;;1.98;;
7529;SDS011;3806;52.270;10.544;2023-03-12T16:01:17;2.85;;;2.08;;
7529;SDS011;3806;52.270;10.544;2023-03-12T16:03:47;2.42;;;2.08;;
7529;SDS011;3806;52.270;10.544;2023-03-12T16:06:17;4.10;;;2.38;;
7529;SDS011;3806;52.270;10.544;2023-03-12T16:08:58;2.60;;;1.77;;
7529;SDS011;3806;52.270;10.544;2023-03-12T16:11:26;2.45;;;2.05;;
7529;SDS011;3806;52.270;10.544;2023-03-12T16:14:05;3.20;;;2.30;;
7529;SDS011;3806;52.270;10.544;2023-03-12T16:16:43;5.90;;;2.80;;
7529;SDS011;3806;52.270;10.544;2023-03-12T16:19:12;4.47;;;3.75;;
7529;SDS011;3806;52.270;10.544;2023-03-12T16:21:39;3.45;;;2.97;;
7529;SDS011;3806;52.270;10.544;2023-03-12T16:24:05;3.25;;;2.17;;
7529;SDS011;3806;52.270;10.544;2023-03-12T16:26:32;4.93;;;3.55;;
7529;SDS011;3806;52.270;10.544;2023-03-12T16:28:59;5.13;;;3.58;;
7529;SDS011;3806;52.270;10.544;2023-03-12T16:31:24;3.60;;;2.42;;
7529;SDS011;3806;52.270;10.544;2023-03-12T16:33:50;4.47;;;3.00;;
7529;SDS011;3806;52.270;10.544;2023-03-12T16:36:16;2.95;;;2.58;;
7529;SDS011;3806;52.270;10.544;2023-03-12T16:38:43;4.00;;;2.83;;
7529;SDS011;3806;52.270;10.544;2023-03-12T16:41:16;4.78;;;2.50;;
7529;SDS011;3806;52.270;10.544;2023-03-12T16:43:43;5.72;;;2.65;;
7529;SDS011;3806;52.270;10.544;2023-03-12T16:46:13;5.78;;;2.55;;
7529;SDS011;3806;52.270;10.544;2023-03-12T16:48:42;3.83;;;2.70;;
7529;SDS011;3806;52.270;10.544;2023-03-12T16:51:11;5.10;;;2.75;;
7529;SDS011;3806;52.270;10.544;2023-03-12T16:53:38;4.53;;;3.50;;
7529;SDS011;3806;52.270;10.544;2023-03-12T16:56:04;6.82;;;3.17;;